Ann Arbor, MI (48104)

10:26 PM EST on February 09, 2016 (GMT -0500)
Kimberley Hills | | Change Station
CLOSE
Current Station
Personal Weather Station
Location: Ann Arbor, MI
Elevation: 880 ft
Nearby Weather Stations

Elev 880 ft 42.25 °N, 83.72 °W | Updated 45 seconds ago

Overcast
Overcast
24.6 °F
Feels Like 25 °F
N
2.2
Wind Variable Wind from NW
Gusts 5.4 mph

Today
High -- | Low -- °F
--% Chance of Precip.
Yesterday
High -- | Low -- °F
Precip. -- in
Pressure 29.75 in
Visibility 10.0 miles
Clouds Overcast 2000 ft
Windchill 25 °F
Dew Point 11 °F
Humidity 55%
Rainfall 0.00 in
Snow Depth Not available.
7:39 AM 5:59 PM
Waxing Crescent, 3% visible
METAR KARB 100253Z AUTO 29014G18KT 10SM OVC020 M04/M08 A2971 RMK AO2 SLP072 T10391078 51007 TSNO
Pressure 29.75 in
Visibility 10.0 miles
Clouds Overcast 2000 ft
Windchill 25 °F
Dew Point 11 °F
Humidity 55%
Rainfall 0.00 in
Snow Depth Not available.
7:39 AM 5:59 PM
Waxing Crescent, 3% visible
METAR KARB 100253Z AUTO 29014G18KT 10SM OVC020 M04/M08 A2971 RMK AO2 SLP072 T10391078 51007 TSNO

10-Day Weather Forecast

Almanac

Astronomy

Feb. 09, 2016 Rise Set
Actual Time
Civil Twilight
Nautical Twilight
Astronomical Twilight
Moon
Length of Visible Light
Length of Day
Tomorrow will be .
, % of the Moon is Illuminated

Today's Extremes

State Highs State Lows

Community

WunderPhotos

Upload Photos

1,891,792 photos uploaded!

WunderBlog® & News

Nearby

Air Quality

  Air Quality AQ Index Pollutant
Not available.

Snow Depth

Station Depth Elevation

Earthquake Activity

City Distance Mag. Time & Date
Minimum magnitude displayed is 2.5.

Coastal Water Temperatures

Place Temperature

Stations

Nearby Weather Stations

Station Location Temp. Windchill Dew Point Humidity Wind Precip. Elev Updated Type
                   

Watches & Warnings

There are currently no watches in effect.